createdAt,value
2018-09-21T00:01:35.616Z,9.43
2018-09-21T00:04:11.516Z,9.67
2018-09-21T00:06:40.626Z,9.23
2018-09-21T00:09:14.425Z,9.50
2018-09-21T00:11:44.404Z,10.28
2018-09-21T00:14:13.284Z,9.90
2018-09-21T00:16:43.755Z,11.15
2018-09-21T00:19:14.452Z,10.10
2018-09-21T00:21:43.866Z,9.58
2018-09-21T00:24:12.795Z,10.05
2018-09-21T00:26:48.713Z,9.48
2018-09-21T00:29:17.568Z,12.40
2018-09-21T00:31:46.467Z,10.00
2018-09-21T00:34:16.487Z,10.13
2018-09-21T00:36:45.388Z,10.03
2018-09-21T00:39:15.776Z,10.18
2018-09-21T00:41:46.193Z,10.35
2018-09-21T00:44:14.866Z,10.20
2018-09-21T00:46:44.863Z,10.50
2018-09-21T00:49:14.844Z,10.48
2018-09-21T00:51:43.852Z,11.03
2018-09-21T00:54:12.686Z,9.98
2018-09-21T00:56:44.347Z,10.90
2018-09-21T00:59:13.045Z,10.30
2018-09-21T01:01:42.788Z,10.60
2018-09-21T01:04:12.542Z,11.25
2018-09-21T01:06:43.476Z,11.10
2018-09-21T01:09:13.568Z,10.58
2018-09-21T01:11:43.525Z,10.93
2018-09-21T01:14:14.801Z,10.53
2018-09-21T01:16:46.920Z,10.80
2018-09-21T01:19:15.897Z,10.70
2018-09-21T01:21:44.767Z,10.50
2018-09-21T01:24:14.221Z,10.68
2018-09-21T01:26:43.649Z,10.20
2018-09-21T01:29:13.250Z,10.48
2018-09-21T01:31:43.788Z,10.53
2018-09-21T01:34:12.476Z,10.88
2018-09-21T01:36:41.462Z,10.18
2018-09-21T01:39:11.023Z,10.80
2018-09-21T01:41:39.716Z,11.33
2018-09-21T01:44:09.185Z,10.93
2018-09-21T01:46:38.087Z,11.35
2018-09-21T01:49:06.994Z,10.70
2018-09-21T01:51:35.802Z,11.20
2018-09-21T01:54:05.632Z,11.30
2018-09-21T01:56:34.387Z,11.05
2018-09-21T01:59:05.464Z,10.50
2018-09-21T02:01:34.367Z,11.08
2018-09-21T02:04:03.070Z,10.70
2018-09-21T02:06:33.630Z,11.18
2018-09-21T02:09:03.431Z,11.00
2018-09-21T02:11:32.346Z,11.23
2018-09-21T02:14:01.994Z,11.08
2018-09-21T02:16:30.613Z,10.98
2018-09-21T02:19:01.698Z,12.30
2018-09-21T02:21:30.593Z,13.03
2018-09-21T02:23:59.270Z,12.10
2018-09-21T02:26:28.099Z,12.65
2018-09-21T02:28:57.036Z,12.28
2018-09-21T02:31:25.684Z,11.97
2018-09-21T02:33:54.363Z,12.70
2018-09-21T02:36:24.953Z,12.43
2018-09-21T02:38:53.744Z,12.05
2018-09-21T02:41:22.568Z,12.13
2018-09-21T02:43:51.678Z,12.28
2018-09-21T02:46:20.592Z,11.95
2018-09-21T02:48:49.438Z,13.32
2018-09-21T02:51:18.193Z,12.25
2018-09-21T02:53:47.678Z,12.85
2018-09-21T02:56:16.769Z,12.20
2018-09-21T02:58:45.513Z,12.70
2018-09-21T03:01:14.217Z,12.68
2018-09-21T03:03:44.763Z,13.78
2018-09-21T03:06:13.879Z,13.15
2018-09-21T03:08:42.750Z,12.90
2018-09-21T03:11:13.889Z,13.05
2018-09-21T03:13:42.662Z,12.95
2018-09-21T03:16:11.468Z,13.00
2018-09-21T03:18:40.238Z,13.70
2018-09-21T03:21:11.803Z,13.67
2018-09-21T03:23:41.021Z,13.48
2018-09-21T03:26:09.801Z,13.62
2018-09-21T03:28:38.462Z,13.32
2018-09-21T03:31:07.623Z,14.87
2018-09-21T03:33:36.539Z,14.43
2018-09-21T03:36:05.982Z,13.62
2018-09-21T03:38:35.640Z,13.13
2018-09-21T03:41:05.015Z,14.47
2018-09-21T03:43:33.840Z,13.78
2018-09-21T03:46:03.132Z,14.38
2018-09-21T03:48:32.462Z,13.95
2018-09-21T03:51:01.344Z,13.97
2018-09-21T03:53:30.192Z,14.25
2018-09-21T03:55:58.839Z,13.40
2018-09-21T03:58:27.909Z,13.30
2018-09-21T04:00:56.728Z,12.85
2018-09-21T04:03:25.424Z,12.85
2018-09-21T04:05:54.182Z,13.48
2018-09-21T04:08:23.072Z,13.65
2018-09-21T04:10:51.922Z,13.55
2018-09-21T04:13:21.467Z,13.72
2018-09-21T04:15:50.129Z,13.65
2018-09-21T04:18:18.832Z,14.58
2018-09-21T04:20:47.572Z,13.98
2018-09-21T04:23:16.327Z,13.60
2018-09-21T04:25:45.161Z,13.85
2018-09-21T04:28:13.866Z,13.53
2018-09-21T04:30:42.854Z,14.77
2018-09-21T04:33:11.574Z,13.97
2018-09-21T04:35:40.535Z,13.90
2018-09-21T04:38:09.939Z,14.38
2018-09-21T04:40:38.645Z,14.90
2018-09-21T04:43:09.298Z,14.15
2018-09-21T04:45:39.065Z,14.28
2018-09-21T04:48:09.501Z,15.67
2018-09-21T04:50:40.330Z,15.53
2018-09-21T04:53:14.183Z,14.55
2018-09-21T04:55:43.076Z,14.73
2018-09-21T04:58:15.631Z,14.63
2018-09-21T05:00:44.851Z,14.07
2018-09-21T05:03:20.200Z,15.17
2018-09-21T05:05:51.926Z,14.80
2018-09-21T05:08:20.689Z,15.10
2018-09-21T05:10:49.543Z,15.95
2018-09-21T05:13:18.504Z,15.18
2018-09-21T05:15:47.627Z,16.02
2018-09-21T05:18:16.960Z,16.27
2018-09-21T05:20:46.222Z,14.70
2018-09-21T05:23:15.090Z,14.28
2018-09-21T05:25:48.184Z,15.53
2018-09-21T05:28:16.925Z,15.58
2018-09-21T05:30:52.695Z,14.50
2018-09-21T05:33:21.677Z,15.75
2018-09-21T05:36:00.914Z,15.45
2018-09-21T05:38:35.921Z,15.48
2018-09-21T05:41:07.415Z,16.50
2018-09-21T05:43:37.881Z,19.60
2018-09-21T05:46:06.739Z,17.07
2018-09-21T05:48:35.455Z,17.48
2018-09-21T05:51:06.802Z,17.75
2018-09-21T05:53:35.583Z,18.10
2018-09-21T05:56:08.299Z,20.10
2018-09-21T05:58:37.041Z,22.87
2018-09-21T06:01:06.004Z,22.52
2018-09-21T06:03:34.757Z,21.60
2018-09-21T06:06:04.834Z,21.37
2018-09-21T06:08:35.715Z,20.40
2018-09-21T06:11:05.608Z,21.62
2018-09-21T06:13:41.714Z,20.87
2018-09-21T06:16:21.664Z,19.80
2018-09-21T06:18:57.109Z,20.23
2018-09-21T06:21:37.051Z,19.87
2018-09-21T06:24:18.362Z,19.87
2018-09-21T06:26:47.315Z,19.75
2018-09-21T06:29:19.384Z,20.68
2018-09-21T06:31:49.147Z,19.20
2018-09-21T06:34:18.131Z,20.60
2018-09-21T06:36:49.779Z,20.30
2018-09-21T06:39:30.017Z,20.12
2018-09-21T06:42:00.913Z,21.47
2018-09-21T06:44:32.244Z,21.33
2018-09-21T06:47:01.183Z,19.27
2018-09-21T06:49:30.077Z,18.67
2018-09-21T06:52:05.019Z,18.90
2018-09-21T06:54:34.713Z,19.73
2018-09-21T06:57:07.872Z,20.97
2018-09-21T06:59:36.830Z,25.68
2018-09-21T07:02:12.330Z,22.98
2018-09-21T07:04:42.190Z,23.65
2018-09-21T07:07:11.063Z,23.00
2018-09-21T07:09:40.115Z,27.35
2018-09-21T07:12:14.243Z,27.40
2018-09-21T07:14:43.032Z,24.77
2018-09-21T07:17:14.844Z,29.50
2018-09-21T07:19:44.212Z,34.50
2018-09-21T07:22:13.085Z,34.80
2018-09-21T07:24:47.237Z,39.80
2018-09-21T07:27:16.017Z,40.52
2018-09-21T07:29:44.874Z,39.60
2018-09-21T07:32:14.701Z,38.90
2018-09-21T07:34:44.136Z,37.67
2018-09-21T07:37:13.265Z,38.10
2018-09-21T07:39:44.740Z,35.50
2018-09-21T07:42:13.531Z,34.35
2018-09-21T07:44:42.685Z,36.08
2018-09-21T07:47:11.462Z,35.63
2018-09-21T07:49:44.616Z,33.55
2018-09-21T07:52:13.505Z,34.13
2018-09-21T07:54:46.313Z,32.23
2018-09-21T07:57:20.802Z,33.13
2018-09-21T07:59:53.196Z,33.60
2018-09-21T08:02:29.013Z,36.25
2018-09-21T08:05:06.234Z,34.15
2018-09-21T08:07:35.070Z,31.50
2018-09-21T08:10:08.688Z,34.85
2018-09-21T08:12:46.631Z,33.08
2018-09-21T08:15:17.234Z,33.28
2018-09-21T08:17:50.320Z,36.80
2018-09-21T08:20:19.840Z,34.23
2018-09-21T08:22:49.040Z,34.98
2018-09-21T08:25:27.812Z,35.43
2018-09-21T08:27:57.016Z,33.80
2018-09-21T08:30:25.808Z,33.88
2018-09-21T08:32:54.560Z,33.92
2018-09-21T08:35:24.927Z,33.98
2018-09-21T08:37:57.782Z,33.83
2018-09-21T08:40:28.643Z,33.05
2018-09-21T08:42:57.373Z,32.15
2018-09-21T08:45:26.341Z,36.38
2018-09-21T08:47:55.472Z,35.17
2018-09-21T08:50:26.388Z,39.73
2018-09-21T08:52:55.429Z,37.88
2018-09-21T08:55:24.413Z,38.17
2018-09-21T08:57:53.307Z,34.67
2018-09-21T09:00:24.462Z,30.82
2018-09-21T09:02:53.309Z,31.55
2018-09-21T09:05:24.522Z,26.33
2018-09-21T09:07:53.434Z,23.98
2018-09-21T09:10:22.348Z,23.27
2018-09-21T09:12:51.644Z,22.73
2018-09-21T09:15:21.524Z,22.10
2018-09-21T09:17:50.879Z,20.75
2018-09-21T09:20:19.615Z,23.35
2018-09-21T09:22:48.443Z,22.53
2018-09-21T09:25:19.223Z,21.85
2018-09-21T09:27:50.472Z,22.73
2018-09-21T09:30:20.415Z,21.80
2018-09-21T09:32:49.352Z,23.12
2018-09-21T09:35:19.332Z,24.85
2018-09-21T09:37:48.045Z,20.97
2018-09-21T09:40:18.348Z,19.40
2018-09-21T09:42:47.558Z,19.98
2018-09-21T09:45:20.707Z,24.72
2018-09-21T09:47:56.109Z,18.92
2018-09-21T09:50:24.814Z,18.15
2018-09-21T09:53:03.729Z,18.35
2018-09-21T09:55:32.571Z,16.23
2018-09-21T09:58:06.943Z,18.40
2018-09-21T10:00:40.357Z,17.77
2018-09-21T10:03:12.718Z,15.30
2018-09-21T10:05:45.019Z,17.10
2018-09-21T10:08:26.413Z,14.60
2018-09-21T10:10:56.187Z,16.30
2018-09-21T10:13:25.119Z,20.12
2018-09-21T10:16:09.753Z,19.47
2018-09-21T10:18:50.946Z,14.80
2018-09-21T10:21:22.078Z,16.50
2018-09-21T10:23:50.924Z,12.37
2018-09-21T10:26:21.874Z,12.13
2018-09-21T10:28:51.049Z,13.18
2018-09-21T10:31:19.418Z,12.58
2018-09-21T10:33:48.287Z,13.78
2018-09-21T10:36:17.293Z,13.48
2018-09-21T10:38:46.197Z,10.85
2018-09-21T10:41:29.283Z,12.15
2018-09-21T10:43:58.015Z,9.10
2018-09-21T10:46:26.847Z,9.58
2018-09-21T10:48:56.025Z,8.90
2018-09-21T10:51:24.915Z,9.30
2018-09-21T10:53:53.787Z,9.43
2018-09-21T10:56:27.971Z,11.20
2018-09-21T10:58:59.141Z,9.93
2018-09-21T11:01:28.066Z,9.88
2018-09-21T11:03:57.610Z,11.33
2018-09-21T11:06:26.312Z,8.35
2018-09-21T11:08:55.292Z,8.20
2018-09-21T11:11:24.153Z,9.00
2018-09-21T11:13:52.873Z,8.78
2018-09-21T11:16:21.696Z,8.53
2018-09-21T11:18:50.406Z,8.90
2018-09-21T11:21:19.312Z,9.03
2018-09-21T11:23:48.075Z,8.10
2018-09-21T11:26:16.816Z,8.00
2018-09-21T11:28:47.968Z,8.50
2018-09-21T11:31:18.228Z,8.55
2018-09-21T11:33:47.333Z,9.23
2018-09-21T11:36:16.283Z,8.50
2018-09-21T11:38:46.938Z,7.83
2018-09-21T11:41:15.666Z,7.00
2018-09-21T11:43:45.288Z,15.60
2018-09-21T11:46:14.632Z,7.97
2018-09-21T11:48:48.384Z,6.87
2018-09-21T11:51:17.478Z,6.78
2018-09-21T11:53:46.323Z,9.60
2018-09-21T11:56:19.865Z,6.40
2018-09-21T11:58:49.253Z,6.27
2018-09-21T12:01:21.517Z,6.33
2018-09-21T12:03:51.218Z,5.40
2018-09-21T12:06:21.058Z,4.72
2018-09-21T12:08:53.339Z,5.72
2018-09-21T12:11:22.104Z,5.20
2018-09-21T12:13:51.260Z,4.90
2018-09-21T12:16:20.995Z,6.23
2018-09-21T12:18:49.750Z,4.87
2018-09-21T12:21:18.533Z,4.50
2018-09-21T12:23:47.601Z,5.33
2018-09-21T12:26:16.836Z,5.40
2018-09-21T12:28:47.495Z,5.00
2018-09-21T12:31:22.748Z,4.92
2018-09-21T12:33:51.599Z,5.30
2018-09-21T12:36:20.400Z,4.75
2018-09-21T12:38:49.066Z,5.50
2018-09-21T12:41:21.905Z,5.03
2018-09-21T12:43:51.869Z,5.42
2018-09-21T12:46:27.205Z,6.70
2018-09-21T12:48:58.713Z,5.30
2018-09-21T12:51:27.995Z,4.95
2018-09-21T12:53:56.697Z,5.45
2018-09-21T12:56:30.480Z,5.50
2018-09-21T13:02:06.484Z,5.87
2018-09-21T13:04:40.783Z,6.03
2018-09-21T13:07:10.381Z,6.55
2018-09-21T13:09:39.655Z,6.00
2018-09-21T13:12:13.096Z,5.43
2018-09-21T13:14:42.016Z,5.17
2018-09-21T13:17:11.478Z,5.30
2018-09-21T13:19:41.095Z,6.20
2018-09-21T13:25:07.629Z,6.07
2018-09-21T13:27:53.405Z,6.10
2018-09-21T13:30:32.975Z,5.45
2018-09-21T13:33:06.212Z,5.60
2018-09-21T13:35:38.438Z,5.50
2018-09-21T13:38:09.063Z,6.35
2018-09-21T13:40:38.168Z,6.00
2018-09-21T13:43:06.952Z,5.90
2018-09-21T13:45:36.515Z,6.45
2018-09-21T13:48:09.363Z,5.87
2018-09-21T13:50:39.299Z,6.33
2018-09-21T13:53:12.802Z,6.28
2018-09-21T13:55:42.122Z,6.03
2018-09-21T13:58:10.891Z,6.72
2018-09-21T14:00:39.733Z,6.50
2018-09-21T14:03:10.195Z,6.62
2018-09-21T14:05:39.675Z,6.22
2018-09-21T14:08:08.343Z,7.35
2018-09-21T14:10:36.991Z,6.92
2018-09-21T14:13:10.857Z,6.95
2018-09-21T14:15:42.087Z,7.47
2018-09-21T14:18:12.719Z,6.75
2018-09-21T14:20:43.128Z,6.37
2018-09-21T14:23:12.282Z,6.80
2018-09-21T14:25:41.218Z,6.85
2018-09-21T14:28:13.191Z,7.03
2018-09-21T14:30:42.311Z,7.08
2018-09-21T14:33:11.232Z,6.83
2018-09-21T14:35:41.437Z,8.28
2018-09-21T14:38:13.307Z,7.00
2018-09-21T14:40:43.997Z,7.28
2018-09-21T14:43:15.459Z,7.50
2018-09-21T14:45:44.809Z,7.67
2018-09-21T14:48:14.634Z,7.08
2018-09-21T14:50:43.433Z,7.10
2018-09-21T14:53:17.478Z,6.97
2018-09-21T14:55:51.671Z,7.58
2018-09-21T14:58:27.860Z,8.55
2018-09-21T15:00:57.108Z,7.00
2018-09-21T15:03:25.814Z,7.60
2018-09-21T15:05:54.472Z,7.00
2018-09-21T15:08:24.264Z,6.90
2018-09-21T15:10:54.251Z,7.35
2018-09-21T15:13:24.892Z,7.07
2018-09-21T15:15:53.671Z,7.67
2018-09-21T15:18:25.424Z,8.75
2018-09-21T15:20:54.288Z,7.57
2018-09-21T15:23:23.963Z,7.00
2018-09-21T15:25:57.948Z,8.35
2018-09-21T15:28:27.065Z,7.70
2018-09-21T15:30:55.722Z,8.80
2018-09-21T15:33:27.648Z,8.00
2018-09-21T15:35:56.444Z,7.92
2018-09-21T15:38:25.401Z,9.83
2018-09-21T15:40:54.308Z,8.98
2018-09-21T15:43:23.310Z,7.97
2018-09-21T15:45:52.039Z,9.05
2018-09-21T15:48:20.880Z,8.05
2018-09-21T15:50:51.021Z,9.80
2018-09-21T15:53:19.856Z,9.40
2018-09-21T15:55:48.692Z,9.28
2018-09-21T15:58:23.417Z,9.98
2018-09-21T16:00:52.080Z,12.18
2018-09-21T16:03:23.038Z,8.90
2018-09-21T16:05:51.650Z,10.95
2018-09-21T16:08:20.709Z,9.78
2018-09-21T16:10:50.011Z,10.00
2018-09-21T16:13:19.064Z,10.88
2018-09-21T16:15:48.136Z,12.30
2018-09-21T16:18:20.459Z,12.15
2018-09-21T16:20:49.321Z,10.50
2018-09-21T16:23:18.017Z,16.40
2018-09-21T16:25:48.993Z,13.35
2018-09-21T16:28:24.236Z,12.83
2018-09-21T16:30:53.558Z,15.98
2018-09-21T16:33:22.239Z,11.12
2018-09-21T16:35:52.247Z,10.98
2018-09-21T16:38:21.085Z,14.73
2018-09-21T16:40:50.295Z,10.30
2018-09-21T16:43:19.102Z,9.93
2018-09-21T16:45:48.907Z,10.85
2018-09-21T16:55:08.275Z,9.38
2018-09-21T16:57:38.341Z,9.48
2018-09-21T17:00:14.999Z,10.28
2018-09-21T17:02:44.107Z,9.33
2018-09-21T17:06:42.519Z,9.38
2018-09-21T17:09:15.338Z,9.80
2018-09-21T17:11:53.814Z,10.63
2018-09-21T17:14:22.567Z,12.87
2018-09-21T17:16:51.330Z,11.65
2018-09-21T17:19:20.128Z,10.70
2018-09-21T17:21:49.041Z,11.33
2018-09-21T17:24:22.374Z,10.93
2018-09-21T17:26:51.134Z,11.30
2018-09-21T17:29:21.878Z,12.33
2018-09-21T17:31:50.599Z,13.58
2018-09-21T17:34:19.532Z,10.82
2018-09-21T17:36:48.560Z,12.30
2018-09-21T17:39:17.445Z,14.23
2018-09-21T17:41:50.486Z,10.72
2018-09-21T17:44:19.747Z,9.98
2018-09-21T17:46:48.555Z,11.90
2018-09-21T17:49:18.947Z,13.70
2018-09-21T17:51:50.809Z,10.95
2018-09-21T17:54:19.417Z,13.77
2018-09-21T17:56:48.223Z,13.15
2018-09-21T17:59:17.000Z,14.20
2018-09-21T18:01:46.002Z,12.07
2018-09-21T18:04:26.269Z,11.83
2018-09-21T18:07:01.194Z,14.63
2018-09-21T18:09:34.661Z,14.18
2018-09-21T18:12:10.825Z,12.00
2018-09-21T18:14:40.775Z,14.80
2018-09-21T18:17:13.784Z,12.15
2018-09-21T18:19:45.865Z,12.03
2018-09-21T18:22:14.721Z,14.03
2018-09-21T18:24:47.774Z,12.65
2018-09-21T18:27:18.460Z,13.90
2018-09-21T18:29:51.068Z,12.50
2018-09-21T18:32:19.801Z,12.80
2018-09-21T18:34:53.131Z,12.47
2018-09-21T18:37:29.250Z,11.85
2018-09-21T18:39:58.063Z,11.73
2018-09-21T18:42:27.978Z,12.45
2018-09-21T18:44:56.647Z,12.78
2018-09-21T18:47:27.091Z,11.93
2018-09-21T18:49:55.964Z,17.00
2018-09-21T18:52:24.618Z,13.03
2018-09-21T18:54:53.537Z,10.88
2018-09-21T18:57:23.195Z,11.97
2018-09-21T18:59:51.947Z,12.37
2018-09-21T19:02:20.768Z,13.83
2018-09-21T19:04:49.568Z,10.77
2018-09-21T19:07:25.646Z,12.45
2018-09-21T19:09:56.341Z,11.65
2018-09-21T19:12:25.568Z,10.72
2018-09-21T19:14:54.592Z,10.60
2018-09-21T19:17:23.885Z,22.02
2018-09-21T19:19:53.137Z,12.53
2018-09-21T19:22:23.858Z,10.03
2018-09-21T19:24:57.544Z,12.23
2018-09-21T19:27:26.616Z,12.03
2018-09-21T19:29:55.962Z,8.50
2018-09-21T19:32:25.645Z,11.65
2018-09-21T19:34:54.352Z,8.53
2018-09-21T19:37:23.401Z,9.68
2018-09-21T19:39:52.166Z,8.48
2018-09-21T19:42:23.324Z,7.25
2018-09-21T19:44:52.232Z,7.90
2018-09-21T19:47:20.958Z,11.43
2018-09-21T19:49:49.731Z,8.53
2018-09-21T19:52:27.382Z,7.87
2018-09-21T19:54:59.194Z,9.85
2018-09-21T20:00:10.879Z,8.60
2018-09-21T20:02:44.823Z,5.73
2018-09-21T20:05:17.580Z,6.45
2018-09-21T20:07:52.017Z,8.03
2018-09-21T20:10:22.626Z,5.92
2018-09-21T20:15:37.816Z,7.00
2018-09-21T20:18:19.011Z,6.00
2018-09-21T20:21:00.880Z,7.10
2018-09-21T20:23:31.163Z,6.85
2018-09-21T20:25:59.733Z,7.28
2018-09-21T20:28:32.289Z,5.17
2018-09-21T20:33:45.674Z,3.95
2018-09-21T20:38:56.135Z,5.47
2018-09-21T20:41:26.358Z,6.05
2018-09-21T20:43:56.630Z,5.25
2018-09-21T20:46:25.376Z,4.28
2018-09-21T20:49:00.247Z,5.30
2018-09-21T20:51:34.327Z,4.62
2018-09-21T20:54:13.166Z,4.50
2018-09-21T20:56:43.674Z,4.03
2018-09-21T20:59:16.696Z,5.55
2018-09-21T21:01:51.466Z,6.07
2018-09-21T21:04:20.240Z,5.20
2018-09-21T21:06:50.855Z,5.80
2018-09-21T21:16:15.259Z,4.87
2018-09-21T21:18:45.522Z,5.25
2018-09-21T21:21:18.300Z,4.72
2018-09-21T21:23:46.934Z,5.60
2018-09-21T21:26:17.593Z,5.42
2018-09-21T21:28:52.942Z,4.87
2018-09-21T21:31:27.727Z,4.80
2018-09-21T21:33:56.454Z,5.33
2018-09-21T21:36:25.488Z,4.58
2018-09-21T21:38:54.791Z,7.07
2018-09-21T21:41:32.364Z,5.47
2018-09-21T21:44:09.182Z,5.25
2018-09-21T21:46:44.167Z,5.65
2018-09-21T21:49:13.981Z,5.90
2018-09-21T21:51:46.189Z,6.42
2018-09-21T21:54:21.780Z,5.05
2018-09-21T21:56:52.872Z,7.03
2018-09-21T21:59:25.589Z,7.25
2018-09-21T22:01:57.562Z,6.08
2018-09-21T22:04:27.197Z,4.97
2018-09-21T22:06:56.117Z,6.33
2018-09-21T22:09:24.873Z,3.40
2018-09-21T22:12:01.644Z,2.50
2018-09-21T22:14:30.264Z,2.83
2018-09-21T22:16:59.003Z,1.87
2018-09-21T22:19:28.417Z,2.22
2018-09-21T22:21:57.053Z,2.90
2018-09-21T22:24:36.104Z,2.45
2018-09-21T22:27:17.649Z,2.00
2018-09-21T22:29:57.236Z,3.65
2018-09-21T22:32:27.237Z,2.02
2018-09-21T22:34:55.790Z,1.60
2018-09-21T22:37:24.358Z,2.15
2018-09-21T22:39:52.973Z,1.90
2018-09-21T22:42:24.124Z,1.40
2018-09-21T22:44:52.761Z,1.70
2018-09-21T22:47:23.506Z,0.90
2018-09-21T22:49:53.826Z,1.35
2018-09-21T22:52:22.502Z,1.20
2018-09-21T22:54:53.709Z,2.67
2018-09-21T22:57:22.334Z,1.90
2018-09-21T22:59:53.487Z,3.03
2018-09-21T23:02:23.918Z,1.60
2018-09-21T23:04:52.506Z,2.98
2018-09-21T23:07:21.181Z,4.10
2018-09-21T23:09:50.119Z,2.83
2018-09-21T23:12:19.132Z,1.95
2018-09-21T23:14:48.740Z,7.15
2018-09-21T23:17:26.118Z,2.07
2018-09-21T23:19:57.784Z,1.37
2018-09-21T23:22:29.628Z,2.85
2018-09-21T23:24:58.265Z,2.83
2018-09-21T23:27:26.916Z,2.60
2018-09-21T23:29:55.587Z,3.17
2018-09-21T23:32:24.324Z,3.90
2018-09-21T23:34:52.963Z,3.93
2018-09-21T23:37:21.634Z,3.98
2018-09-21T23:39:50.515Z,3.77
2018-09-21T23:42:19.949Z,2.65
2018-09-21T23:47:25.627Z,3.10
2018-09-21T23:49:54.874Z,4.17
2018-09-21T23:52:23.497Z,3.70
2018-09-21T23:54:55.284Z,4.62
2018-09-21T23:57:28.015Z,2.37
